Flight Track Log - Related Links

Times and Time Zones

All times are in EDT time to prevent confusion due to time zone crossing. See the N654DL flight status page for this flight to view local times or setup timezone preferences in your user account.

Time Position Orientation Groundspeed Altitude Reporting Facility
EDT Latitude Longitude Course Direction KTS MPH feet Rate Location/Type
Sat 03:01:00 PM 19.4680 -98.9448 75° East  Level FlightAware Approximate
Sat 03:02:00 PM 19.4970 -98.8149 78° East  Level FlightAware Approximate
Sat 03:03:00 PM 19.5339 -98.6872 72° East  Level FlightAware Approximate
Sat 03:04:00 PM 19.5721 -98.5599 72° East  Level FlightAware Approximate
Sat 03:05:00 PM 19.6159 -98.4350 62° Northeast  Level FlightAware Approximate
Sat 03:06:00 PM 19.7069 -98.3728 North  Level FlightAware Approximate
Sat 03:07:00 PM 19.8350 -98.3500 North  Level FlightAware Approximate
Sat 03:08:00 PM 19.9632 -98.3307 11° North  Level FlightAware Approximate
Sat 03:09:00 PM 20.0906 -98.3035 12° North  Level FlightAware Approximate
Sat 03:10:00 PM 20.2176 -98.2742 12° North  Level FlightAware Approximate
Sat 03:11:00 PM 20.3449 -98.2464 11° North  Level FlightAware Approximate
Sat 03:12:00 PM 20.4723 -98.2190 11° North  Level FlightAware Approximate
Sat 03:13:00 PM 20.5996 -98.1934 11° North  Level FlightAware Approximate
Sat 03:14:00 PM 20.7273 -98.1679 11° North  Level FlightAware Approximate
Sat 03:15:00 PM 20.8550 -98.1423 11° North  Level FlightAware Approximate
Sat 03:16:00 PM 20.9828 -98.1168 11° North  Level FlightAware Approximate
Sat 03:17:00 PM 21.1103 -98.0900 11° North  Level FlightAware Approximate
Sat 03:18:00 PM 21.2378 -98.0631 11° North  Level FlightAware Approximate
Sat 03:19:00 PM 21.3654 -98.0368 11° North  Level FlightAware Approximate
Sat 03:20:00 PM 21.4930 -98.0109 11° North  Level FlightAware Approximate
Sat 03:21:00 PM 21.6207 -97.9851 11° North  Level FlightAware Approximate
Sat 03:22:00 PM 21.7484 -97.9591 11° North  Level FlightAware Approximate
Sat 03:23:00 PM 21.8761 -97.9332 11° North  Level FlightAware Approximate
Sat 03:24:00 PM 22.0038 -97.9072 11° North  Level FlightAware Approximate
Sat 03:25:00 PM 22.1314 -97.8811 11° North  Level FlightAware Approximate
Sat 03:26:00 PM 22.2591 -97.8550 11° North  Level FlightAware Approximate
Sat 03:27:00 PM 22.3731 -97.7906 31° Northeast  Level FlightAware Approximate
Sat 03:28:00 PM 22.4839 -97.7171 32° Northeast  Level FlightAware Approximate
Sat 03:29:00 PM 22.5946 -97.6435 32° Northeast  Level FlightAware Approximate
Sat 03:30:00 PM 22.7053 -97.5697 32° Northeast  Level FlightAware Approximate
Sat 03:31:00 PM 22.8160 -97.4959 32° Northeast  Level FlightAware Approximate
Sat 03:32:00 PM 22.9266 -97.4219 32° Northeast  Level FlightAware Approximate
Sat 03:33:00 PM 23.0372 -97.3479 32° Northeast  Level FlightAware Approximate
Sat 03:34:00 PM 23.1476 -97.2734 33° Northeast  Level FlightAware Approximate
Sat 03:35:00 PM 23.2564 -97.1977 33° Northeast  Level FlightAware Approximate
Sat 03:36:00 PM 23.3651 -97.1219 33° Northeast  Level FlightAware Approximate
Sat 03:37:00 PM 23.4738 -97.0460 33° Northeast  Level FlightAware Approximate
Sat 03:38:00 PM 23.5825 -96.9699 33° Northeast  Level FlightAware Approximate
Sat 03:39:00 PM 23.6911 -96.8937 33° Northeast  Level FlightAware Approximate
Sat 03:40:00 PM 23.7997 -96.8174 33° Northeast  Level FlightAware Approximate
Sat 03:41:00 PM 23.9082 -96.7410 33° Northeast  Level FlightAware Approximate
Sat 03:42:00 PM 24.0167 -96.6644 33° Northeast  Level FlightAware Approximate
Sat 03:43:00 PM 24.1252 -96.5877 33° Northeast  Level FlightAware Approximate
Sat 03:44:00 PM 24.2336 -96.5109 33° Northeast  Level FlightAware Approximate
Sat 03:45:00 PM 24.3420 -96.4339 33° Northeast  Level FlightAware Approximate
Sat 03:46:00 PM 24.4504 -96.3568 33° Northeast  Level FlightAware Approximate
Sat 03:47:00 PM 24.5587 -96.2796 33° Northeast  Level FlightAware Approximate
Sat 03:48:00 PM 24.6670 -96.2022 33° Northeast  Level FlightAware Approximate
Sat 03:49:00 PM 24.7752 -96.1248 33° Northeast  Level FlightAware Approximate
Sat 03:50:00 PM 24.8834 -96.0471 33° Northeast  Level FlightAware Approximate
Sat 03:51:00 PM 24.9916 -95.9694 33° Northeast  Level FlightAware Approximate
Sat 03:52:00 PM 25.0997 -95.8915 33° Northeast  Level FlightAware Approximate
Sat 03:53:00 PM 25.2078 -95.8134 33° Northeast  Level FlightAware Approximate
Sat 03:54:00 PM 25.3158 -95.7353 33° Northeast  Level FlightAware Approximate
Sat 03:55:00 PM 25.4238 -95.6569 33° Northeast  Level FlightAware Approximate
Sat 03:56:00 PM 25.5318 -95.5785 33° Northeast  Level FlightAware Approximate
Sat 03:57:00 PM 25.6356 -95.4946 46° Northeast  Level FlightAware Approximate
Sat 03:58:00 PM 25.7252 -95.3914 42° Northeast  Level FlightAware Approximate
Sat 03:58:01 PM 25.0158 -95.8256 45° Northeast 465 535 37,000  Level Houston Center
Sat 03:59:00 PM 25.8167 -95.2903 45° Northeast  Level FlightAware Approximate
Sat 03:59:03 PM 25.1322 -95.7675 24° Northeast 463 533 37,000  Level Houston Center
Sat 04:00:00 PM 25.9078 -95.1886 45° Northeast  Level FlightAware Approximate
Sat 04:00:04 PM 25.2469 -95.7114 24° Northeast 461 531 37,000  Level Houston Center
Sat 04:01:00 PM 25.9988 -95.0867 45° Northeast  Level FlightAware Approximate
Sat 04:01:06 PM 25.3625 -95.6544 24° Northeast 459 528 37,000  Level Houston Center
Sat 04:02:00 PM 26.0939 -94.9895 42° Northeast  Level FlightAware Approximate
Sat 04:02:08 PM 25.5019 -95.5839 25° Northeast 458 527 37,000  Level Houston Center
Sat 04:03:00 PM 26.1896 -94.8931 45° Northeast  Level FlightAware Approximate
Sat 04:03:10 PM 25.6206 -95.5222 25° Northeast 459 528 37,000  Level Houston Center
Sat 04:04:12 PM 25.7222 -95.4183 43° Northeast 493 567 37,000  Level Houston Center
Sat 04:05:13 PM 25.8214 -95.3083 45° Northeast 502 578 37,000  Level Houston Center
Sat 04:06:16 PM 25.9292 -95.1844 46° Northeast 501 577 37,000  Level Houston Center
Sat 04:07:17 PM 26.0228 -95.0667 48° Northeast 505 581 37,000  Level Houston Center
Sat 04:08:19 PM 26.1175 -94.9517 47° Northeast 504 580 37,000  Level Houston Center
Sat 04:09:21 PM 26.2119 -94.8378 47° Northeast 504 580 37,000  Level Houston Center
Sat 04:10:22 PM 26.3064 -94.7233 47° Northeast 504 580 37,000  Level Houston Center
Sat 04:11:24 PM 26.4008 -94.6081 48° Northeast 504 580 37,000  Level Houston Center
Sat 04:12:26 PM 26.5108 -94.4711 48° Northeast 507 583 37,000  Level Houston Center
Sat 04:13:28 PM 26.6067 -94.3539 48° Northeast 512 589 37,000 484 Level Houston Center
Sat 04:14:30 PM 26.7011 -94.2361 48° Northeast 509 586 38,000 823 Climbing Houston Center
Sat 04:15:32 PM 26.7956 -94.1197 48° Northeast 508 585 38,700 484 Climbing Houston Center
Sat 04:16:34 PM 26.8906 -94.0028 48° Northeast 508 585 39,000 145 Climbing Houston Center
Sat 04:17:36 PM 26.9853 -93.8839 48° Northeast 510 587 39,000  Level Houston Center
Sat 04:18:37 PM 27.0969 -93.7439 48° Northeast 504 580 39,000  Level Houston Center
Sat 04:19:39 PM 27.1931 -93.6247 48° Northeast 499 574 39,000  Level Houston Center
Sat 04:20:41 PM 27.2828 -93.5119 48° Northeast 500 575 39,000  Level Houston Center
Sat 04:21:43 PM 27.3753 -93.3939 49° Northeast 504 580 39,000  Level Houston Center
Sat 04:22:45 PM 27.4686 -93.2758 48° Northeast 504 580 39,000  Level Houston Center
Sat 04:23:47 PM 27.5692 -93.1506 48° Northeast 506 582 39,000  Level Houston Center
Sat 04:24:49 PM 27.6631 -93.0306 49° Northeast 507 583 39,000  Level Houston Center
Sat 04:25:50 PM 27.7589 -92.9092 48° Northeast 514 592 39,000  Level Houston Center
Sat 04:26:52 PM 27.8731 -92.7622 49° Northeast 519 597 39,000  Level Houston Center
Sat 04:27:54 PM 27.9686 -92.6408 48° Northeast 519 597 39,000  Level Houston Center
Sat 04:28:56 PM 28.0617 -92.5214 49° Northeast 512 589 39,000  Level Houston Center
Sat 04:29:57 PM 28.1575 -92.3978 49° Northeast 520 598 39,000  Level Houston Center
Sat 04:30:59 PM 28.2553 -92.2728 48° Northeast 528 608 39,000  Level Houston Center
Sat 04:32:01 PM 28.3500 -92.1503 49° Northeast 518 596 39,000  Level Houston Center
Sat 04:33:03 PM 28.4633 -92.0017 49° Northeast 518 596 39,000  Level Houston Center
Sat 04:34:05 PM 28.5594 -91.8778 49° Northeast 523 602 39,000  Level Houston Center
Sat 04:35:06 PM 28.6525 -91.7539 49° Northeast 518 596 39,000  Level Houston Center
Sat 04:36:08 PM 28.7386 -91.6397 49° Northeast 519 597 39,000  Level Houston Center
Sat 04:37:10 PM 28.8519 -91.4914 49° Northeast 517 595 39,000  Level Houston Center
Sat 04:38:12 PM 28.9453 -91.3678 49° Northeast 517 595 39,000  Level Houston Center
Sat 04:39:14 PM 29.0394 -91.2439 49° Northeast 516 594 39,000  Level Houston Center
Sat 04:40:16 PM 29.1322 -91.1208 49° Northeast 513 590 39,000  Level Houston Center
Sat 04:41:17 PM 29.2261 -90.9969 49° Northeast 515 593 39,000  Level Houston Center
Sat 04:42:19 PM 29.3192 -90.8731 49° Northeast 515 593 39,000  Level Houston Center
Sat 04:43:21 PM 29.4106 -90.7478 50° Northeast 513 590 39,000  Level Houston Center
Sat 04:44:23 PM 29.5217 -90.6000 49° Northeast 513 590 39,000  Level Houston Center
Sat 04:45:25 PM 29.6142 -90.4761 49° Northeast 512 589 39,000  Level Houston Center
Sat 04:46:27 PM 29.7056 -90.3519 50° Northeast 510 587 39,000  Level Houston Center
Sat 04:47:29 PM 29.7972 -90.2264 50° Northeast 513 590 39,000  Level Houston Center
Sat 04:48:31 PM 29.8897 -90.1022 49° Northeast 513 590 39,000  Level Houston Center
Sat 04:49:33 PM 29.9806 -89.9769 50° Northeast 512 589 39,000  Level Houston Center
Sat 04:50:35 PM 30.0908 -89.8244 50° Northeast 517 595 39,000  Level Houston Center
Sat 04:51:37 PM 30.1808 -89.6986 50° Northeast 519 597 39,000  Level Houston Center
Sat 04:52:38 PM 30.2728 -89.5736 50° Northeast 521 600 39,000  Level Houston Center
Sat 04:53:40 PM 30.3644 -89.4472 50° Northeast 520 598 39,000  Level Houston Center
Sat 04:54:42 PM 30.4753 -89.2936 50° Northeast 522 601 39,000  Level Houston Center
Sat 04:55:44 PM 30.5661 -89.1639 51° Northeast 521 600 39,000  Level Houston Center
Sat 04:56:46 PM 30.6583 -89.0339 50° Northeast 522 601 39,000  Level Houston Center
Sat 04:57:48 PM 30.7478 -88.9075 51° Northeast 521 600 39,000  Level Houston Center
Sat 04:58:50 PM 30.8414 -88.7767 50° Northeast 525 604 39,000  Level Houston Center
Sat 04:59:52 PM 30.9542 -88.6186 50° Northeast 528 608 39,000 -242 Level Houston Center
Sat 05:00:54 PM 31.0486 -88.4844 51° Northeast 527 606 38,500 -629 Descending Houston Center
Sat 05:01:56 PM 31.1394 -88.3539 51° Northeast 522 601 37,700 -695 Descending Houston Center
Sat 05:02:29 PM 31.1914 -88.2961 44° Northeast 533 613 37,400 -1,161 Descending Atlanta Center
Sat 05:03:29 PM 31.2814 -88.1617 52° Northeast 533 613 35,900 -1,467 Descending Atlanta Center
Sat 05:03:59 PM 31.3289 -88.0869 53° Northeast 525 604 35,200 -587 Descending Houston Center
Sat 05:05:01 PM 31.4214 -87.9533 51° Northeast 527 606 35,000 -133 Descending Houston Center
Sat 05:05:29 PM 31.4631 -87.8975 49° Northeast 528 608 35,000  Level Atlanta Center
Sat 05:06:29 PM 31.5486 -87.7597 54° Northeast 528 608 35,000  Level Atlanta Center
Sat 05:07:29 PM 31.6364 -87.6194 54° Northeast 528 608 35,000  Level Atlanta Center
Sat 05:08:29 PM 31.7217 -87.4764 55° Northeast 533 613 35,000  Level Atlanta Center
Sat 05:09:29 PM 31.8117 -87.3186 56° Northeast 528 608 35,000  Level Atlanta Center
Sat 05:10:29 PM 31.8989 -87.1750 54° Northeast 523 602 35,000  Level Atlanta Center
Sat 05:11:29 PM 31.9836 -87.0333 55° Northeast 523 602 35,000  Level Atlanta Center
Sat 05:12:29 PM 32.0706 -86.8892 55° Northeast 529 609 35,000  Level Atlanta Center
Sat 05:13:29 PM 32.1553 -86.7472 55° Northeast 529 609 35,000 -200 Level Atlanta Center
Sat 05:14:29 PM 32.2369 -86.6294 51° Northeast 534 615 34,600 -650 Descending Atlanta Center
Sat 05:15:29 PM 32.3214 -86.4894 54° Northeast 529 609 33,700 -900 Descending Atlanta Center
Sat 05:16:29 PM 32.4058 -86.3342 57° Northeast 513 590 32,800 -900 Descending Atlanta Center
Sat 05:17:29 PM 32.4853 -86.1983 55° Northeast 503 579 31,900 -1,550 Descending Atlanta Center
Sat 05:18:29 PM 32.5669 -86.0722 52° Northeast 515 593 29,700 -1,800 Descending Atlanta Center
Sat 05:19:29 PM 32.6461 -85.9383 55° Northeast 510 587 28,300 -1,650 Descending Atlanta Center
Sat 05:20:29 PM 32.7233 -85.8092 55° Northeast 498 573 26,400 -1,600 Descending Atlanta Center
Sat 05:21:29 PM 32.7917 -85.6869 56° Northeast 467 537 25,100 -1,400 Descending Atlanta Center
Sat 05:22:29 PM 32.8642 -85.5722 53° Northeast 448 516 23,600 -1,750 Descending Atlanta Center
Sat 05:23:29 PM 32.9325 -85.4569 55° Northeast 429 494 21,600 -1,950 Descending Atlanta Center
Sat 05:24:29 PM 32.9961 -85.3467 55° Northeast 418 481 19,700 -1,950 Descending Atlanta Center
Sat 05:25:29 PM 33.0600 -85.2458 53° Northeast 402 463 17,700 -1,950 Descending Atlanta Center
Sat 05:26:29 PM 33.1214 -85.1375 56° Northeast 390 449 15,800 -1,800 Descending Atlanta Center
Sat 05:27:29 PM 33.1869 -85.0292 54° Northeast 384 442 14,100 -900 Descending Atlanta Center
Sat 05:28:29 PM 33.2525 -84.9356 50° Northeast 368 423 14,000 -650 Descending Atlanta Center
Sat 05:29:29 PM 33.3219 -84.8467 47° Northeast 362 417 12,800 -1,000 Descending Atlanta Center
Sat 05:30:29 PM 33.3872 -84.7603 48° Northeast 352 405 12,000 -623 Descending Atlanta Center
Sat 05:30:46 PM 33.4000 -84.7333 60° Northeast 349 402 12,000  Level Atlanta TRACON
Sat 05:31:40 PM 33.4667 -84.6500 46° Northeast 339 390 12,000  Level Atlanta TRACON
Sat 05:32:40 PM 33.5167 -84.5833 48° Northeast 280 322 12,000 -500 Level Atlanta TRACON
Sat 05:33:40 PM 33.5500 -84.5000 64° Northeast 274 315 11,000 -1,250 Descending Atlanta TRACON
Sat 05:34:40 PM 33.5500 -84.4167 90° East 269 310 9,500 -1,600 Descending Atlanta TRACON
Sat 05:35:40 PM 33.5500 -84.3333 90° East 245 282 7,800 -1,700 Descending Atlanta TRACON
Sat 05:36:40 PM 33.5500 -84.2500 90° East 239 275 6,100 -1,850 Descending Atlanta TRACON
Sat 05:37:40 PM 33.6167 -84.2667 348° North 210 242 4,100 -2,000 Descending Atlanta TRACON

Login

Don't have an account? Register now (free) for customized features, flight alerts, and more!